Skip Navigation LinksHome page > Weather > Current weather Skip Navigation Links

Current Weather

Nantucket Memorial, Nantucket, Mass.

For information only: do not use for flight planning or navigation.
Latest weather
Observation time Sunday, August 25, 2019 12:53 AM EDT
Local time Sunday, August 25, 2019 1:32 AM EDT
Flight conditions Visual Meteorological Conditions
Winds
Wind direction Northeast (40°)
Wind speed 13 mph
Visibility 10 mi.
Sky condition
Ceiling unlimited
Sky clear
Temperature 63°F
Dewpoint 58°F
Altimeter 30.24 in.Hg
Derived measurements
Relative humidity 84%
Density altitude 171 ft.
Sea-level pressure 30.24 in.Hg
Climate data
Temperature minimum, last 24 hours 61°F
Temperature maximum, last 24 hours 72°F
Remarks
Fully automated report.
Automated weather observing station with precipitation discriminator.
Precipitation sensor not operating.
METAR KACK 250453Z AUTO 04011KT 10SM CLR 17/14 A3024 RMK AO2 SLP240 T01720144 402220161 PNO

Settings

Location code

InnerDrive.Weather 4.0.6770.0 Release CLR 4.0.30319.42000
Copyright ©2018 Inner Drive Technology. All rights reserved. Portions Copyright ©1986-2018 David Braverman.

Find weather

Site navigation


Skip Navigation Links

Place info

Page info

PayPal - The safer, easier way to pay online!

Return home.

Copyright ©2019 Inner Drive Technology. Purveyors of fine, hand-crafted computer software. Page printed 2019-08-25T05:32:36 UTC.